createdAt,value
2018-06-27T00:00:47.229Z,15.47
2018-06-27T00:02:43.173Z,15.52
2018-06-27T00:03:43.183Z,15.52
2018-06-27T00:05:42.144Z,15.44
2018-06-27T00:06:42.138Z,15.37
2018-06-27T00:08:39.233Z,15.30
2018-06-27T00:09:39.261Z,15.26
2018-06-27T00:11:39.665Z,15.20
2018-06-27T00:12:40.624Z,15.22
2018-06-27T00:14:39.133Z,15.25
2018-06-27T00:15:37.607Z,15.18
2018-06-27T00:17:33.548Z,15.26
2018-06-27T00:18:33.710Z,15.25
2018-06-27T00:20:32.029Z,15.15
2018-06-27T00:21:31.793Z,15.20
2018-06-27T00:23:29.907Z,15.20
2018-06-27T00:24:31.743Z,15.22
2018-06-27T00:26:26.368Z,15.25
2018-06-27T00:27:25.899Z,15.20
2018-06-27T00:29:24.325Z,15.33
2018-06-27T00:30:25.329Z,15.25
2018-06-27T00:32:21.730Z,15.23
2018-06-27T00:33:21.745Z,15.25
2018-06-27T00:35:19.672Z,15.27
2018-06-27T00:36:20.200Z,15.20
2018-06-27T00:38:18.165Z,15.16
2018-06-27T00:39:17.621Z,15.22
2018-06-27T00:41:16.068Z,15.08
2018-06-27T00:42:15.554Z,15.16
2018-06-27T00:44:13.691Z,15.00
2018-06-27T00:45:13.672Z,15.01
2018-06-27T00:47:10.144Z,15.01
2018-06-27T00:48:09.628Z,15.01
2018-06-27T00:50:07.612Z,15.00
2018-06-27T00:51:07.597Z,14.98
2018-06-27T00:53:05.519Z,14.94
2018-06-27T00:54:05.522Z,14.89
2018-06-27T00:56:03.509Z,15.01
2018-06-27T00:57:04.398Z,14.94
2018-06-27T00:59:01.392Z,14.85
2018-06-27T01:00:01.386Z,14.97
2018-06-27T01:01:57.387Z,14.86
2018-06-27T01:02:57.344Z,14.94
2018-06-27T01:04:55.350Z,14.79
2018-06-27T01:05:55.275Z,14.75
2018-06-27T01:07:51.234Z,14.86
2018-06-27T01:08:52.245Z,14.74
2018-06-27T01:10:50.185Z,14.77
2018-06-27T01:11:49.207Z,14.70
2018-06-27T01:13:47.292Z,14.66
2018-06-27T01:14:47.290Z,14.69
2018-06-27T01:16:45.237Z,14.66
2018-06-27T01:17:45.737Z,14.70
2018-06-27T01:19:43.186Z,14.69
2018-06-27T01:20:43.708Z,14.66
2018-06-27T01:22:41.656Z,14.53
2018-06-27T01:23:41.134Z,14.57
2018-06-27T01:25:40.569Z,14.56
2018-06-27T01:26:40.076Z,14.56
2018-06-27T01:28:37.210Z,14.53
2018-06-27T01:29:37.172Z,14.56
2018-06-27T01:31:35.252Z,14.57
2018-06-27T01:32:35.282Z,14.59
2018-06-27T01:34:34.206Z,14.56
2018-06-27T01:35:33.200Z,14.63
2018-06-27T01:37:31.132Z,14.67
2018-06-27T01:38:31.134Z,14.67
2018-06-27T01:40:29.110Z,14.74
2018-06-27T01:41:29.100Z,14.71
2018-06-27T01:43:27.069Z,14.57
2018-06-27T01:44:27.537Z,14.57
2018-06-27T01:46:25.990Z,14.64
2018-06-27T01:47:25.144Z,14.60
2018-06-27T01:49:23.128Z,14.61
2018-06-27T01:50:23.638Z,14.56
2018-06-27T01:52:21.229Z,14.59
2018-06-27T01:53:21.183Z,14.63
2018-06-27T01:55:19.648Z,14.60
2018-06-27T01:56:19.119Z,14.53
2018-06-27T01:58:17.100Z,14.57
2018-06-27T01:59:17.075Z,14.53
2018-06-27T02:01:15.536Z,14.46
2018-06-27T02:02:15.007Z,14.53
2018-06-27T02:04:13.020Z,14.59
2018-06-27T02:05:12.965Z,14.45
2018-06-27T02:07:10.997Z,14.49
2018-06-27T02:08:10.919Z,14.48
2018-06-27T02:10:09.054Z,14.56
2018-06-27T02:11:09.904Z,14.45
2018-06-27T02:13:07.002Z,14.42
2018-06-27T02:14:06.989Z,14.51
2018-06-27T02:16:04.945Z,14.48
2018-06-27T02:17:02.944Z,14.46
2018-06-27T02:19:00.912Z,14.46
2018-06-27T02:19:58.894Z,14.46
2018-06-27T02:21:54.800Z,14.45
2018-06-27T02:22:54.806Z,14.46
2018-06-27T02:24:53.769Z,14.36
2018-06-27T02:25:52.906Z,14.38
2018-06-27T02:27:51.364Z,14.27
2018-06-27T02:28:50.851Z,14.36
2018-06-27T02:30:50.337Z,14.34
2018-06-27T02:31:49.834Z,14.31
2018-06-27T02:33:47.450Z,14.23
2018-06-27T02:34:47.103Z,14.26
2018-06-27T02:36:43.069Z,14.23
2018-06-27T02:37:43.059Z,14.15
2018-06-27T02:39:39.009Z,14.19
2018-06-27T02:40:39.011Z,14.30
2018-06-27T02:42:37.094Z,14.21
2018-06-27T02:43:37.069Z,14.16
2018-06-27T02:45:34.993Z,14.28
2018-06-27T02:46:35.079Z,14.26
2018-06-27T02:48:32.960Z,14.16
2018-06-27T02:49:33.890Z,14.09
2018-06-27T02:51:31.894Z,14.11
2018-06-27T02:52:31.112Z,14.16
2018-06-27T02:54:29.601Z,14.13
2018-06-27T02:55:29.063Z,14.15
2018-06-27T02:57:28.519Z,14.05
2018-06-27T02:58:29.015Z,14.02
2018-06-27T03:00:23.149Z,13.99
2018-06-27T03:01:23.632Z,14.03
2018-06-27T03:03:21.581Z,13.95
2018-06-27T03:04:21.214Z,13.97
2018-06-27T03:06:20.174Z,14.05
2018-06-27T03:07:20.178Z,14.01
2018-06-27T03:09:17.833Z,14.05
2018-06-27T03:10:18.317Z,14.06
2018-06-27T03:12:15.818Z,13.90
2018-06-27T03:13:15.777Z,13.95
2018-06-27T03:15:11.163Z,13.95
2018-06-27T03:16:11.167Z,13.91
2018-06-27T03:18:09.170Z,13.99
2018-06-27T03:19:09.130Z,13.93
2018-06-27T03:21:08.064Z,13.91
2018-06-27T03:22:07.249Z,13.95
2018-06-27T03:24:05.193Z,13.97
2018-06-27T03:25:05.201Z,14.03
2018-06-27T03:27:01.165Z,14.01
2018-06-27T03:28:02.634Z,14.05
2018-06-27T03:29:59.605Z,14.08
2018-06-27T03:31:00.024Z,14.06
2018-06-27T03:32:57.079Z,14.05
2018-06-27T03:33:57.065Z,14.08
2018-06-27T03:35:58.505Z,14.09
2018-06-27T03:36:57.492Z,14.06
2018-06-27T03:38:53.945Z,14.03
2018-06-27T03:39:53.446Z,14.09
2018-06-27T03:41:52.386Z,14.09
2018-06-27T03:42:52.383Z,14.05
2018-06-27T03:44:50.511Z,14.06
2018-06-27T03:45:50.482Z,14.03
2018-06-27T03:47:47.740Z,14.02
2018-06-27T03:48:47.754Z,14.01
2018-06-27T03:50:43.735Z,14.03
2018-06-27T03:51:43.724Z,14.05
2018-06-27T03:53:42.254Z,14.03
2018-06-27T03:54:43.184Z,14.06
2018-06-27T03:56:39.779Z,14.06
2018-06-27T03:57:39.811Z,14.02
2018-06-27T03:59:38.280Z,14.13
2018-06-27T04:00:37.722Z,14.11
2018-06-27T04:02:35.869Z,14.13
2018-06-27T04:03:36.678Z,14.06
2018-06-27T04:05:34.325Z,14.13
2018-06-27T04:06:33.851Z,14.13
2018-06-27T04:08:32.268Z,14.12
2018-06-27T04:09:32.237Z,14.09
2018-06-27T04:11:32.204Z,14.20
2018-06-27T04:12:32.193Z,14.24
2018-06-27T04:14:30.655Z,14.23
2018-06-27T04:15:30.659Z,14.36
2018-06-27T04:17:29.129Z,14.34
2018-06-27T04:18:29.088Z,14.38
2018-06-27T04:20:24.230Z,14.38
2018-06-27T04:21:24.219Z,14.45
2018-06-27T04:23:22.685Z,14.48
2018-06-27T04:24:22.148Z,14.48
2018-06-27T04:26:18.615Z,14.61
2018-06-27T04:27:18.102Z,14.57
2018-06-27T04:29:15.051Z,14.69
2018-06-27T04:30:14.561Z,14.69
2018-06-27T04:32:13.022Z,14.69
2018-06-27T04:33:13.528Z,14.85
2018-06-27T04:35:12.984Z,14.79
2018-06-27T04:36:12.515Z,14.82
2018-06-27T04:38:09.365Z,14.98
2018-06-27T04:39:08.369Z,15.00
2018-06-27T04:41:08.855Z,15.01
2018-06-27T04:42:08.857Z,15.19
2018-06-27T04:44:07.259Z,15.52
2018-06-27T04:45:06.756Z,15.67
2018-06-27T04:47:03.261Z,15.92
2018-06-27T04:48:02.753Z,15.98
2018-06-27T04:50:01.136Z,16.11
2018-06-27T04:51:00.642Z,16.21
2018-06-27T04:52:58.590Z,16.44
2018-06-27T04:53:58.609Z,16.49
2018-06-27T04:55:54.564Z,16.94
2018-06-27T04:56:54.530Z,17.10
2018-06-27T04:58:53.979Z,17.52
2018-06-27T04:59:53.498Z,17.71
2018-06-27T05:01:50.699Z,18.02
2018-06-27T05:02:51.104Z,18.05
2018-06-27T05:04:48.706Z,18.32
2018-06-27T05:05:48.749Z,18.39
2018-06-27T05:07:44.706Z,18.41
2018-06-27T05:08:44.693Z,18.45
2018-06-27T05:10:43.123Z,18.66
2018-06-27T05:11:42.687Z,18.72
2018-06-27T05:13:38.592Z,18.74
2018-06-27T05:14:38.567Z,18.78
2018-06-27T05:16:36.687Z,18.99
2018-06-27T05:17:37.519Z,19.02
2018-06-27T05:19:34.679Z,19.12
2018-06-27T05:20:35.157Z,19.30
2018-06-27T05:22:33.602Z,19.31
2018-06-27T05:23:32.590Z,19.32
2018-06-27T05:25:31.055Z,19.17
2018-06-27T05:26:30.533Z,19.17
2018-06-27T05:28:27.053Z,19.28
2018-06-27T05:29:26.602Z,19.50
2018-06-27T05:31:25.971Z,19.37
2018-06-27T05:32:24.457Z,19.50
2018-06-27T05:34:22.864Z,19.34
2018-06-27T05:35:22.980Z,19.45
2018-06-27T05:37:19.335Z,19.72
2018-06-27T05:38:18.824Z,19.64
2018-06-27T05:40:16.418Z,19.57
2018-06-27T05:41:16.439Z,19.57
2018-06-27T05:43:14.365Z,19.50
2018-06-27T05:44:14.415Z,19.52
2018-06-27T05:46:10.329Z,19.40
2018-06-27T05:47:10.306Z,19.38
2018-06-27T05:49:10.275Z,19.35
2018-06-27T05:50:09.272Z,19.40
2018-06-27T05:52:07.747Z,19.35
2018-06-27T05:53:07.824Z,19.30
2018-06-27T05:55:05.673Z,19.37
2018-06-27T05:56:05.663Z,19.46
2018-06-27T05:58:03.606Z,19.49
2018-06-27T05:59:04.613Z,19.53
2018-06-27T06:01:01.042Z,19.65
2018-06-27T06:02:01.626Z,19.64
2018-06-27T06:04:00.508Z,19.79
2018-06-27T06:05:01.059Z,19.78
2018-06-27T06:06:58.672Z,19.68
2018-06-27T06:07:57.324Z,19.86
2018-06-27T06:09:55.278Z,19.97
2018-06-27T06:10:55.243Z,20.16
2018-06-27T06:12:53.268Z,20.20
2018-06-27T06:13:53.265Z,20.27
2018-06-27T06:15:54.687Z,20.46
2018-06-27T06:16:54.669Z,20.42
2018-06-27T06:18:51.617Z,20.49
2018-06-27T06:19:52.241Z,20.57
2018-06-27T06:21:49.715Z,20.29
2018-06-27T06:22:49.731Z,20.35
2018-06-27T06:24:47.702Z,20.27
2018-06-27T06:25:47.692Z,20.25
2018-06-27T06:27:46.132Z,20.46
2018-06-27T06:28:46.155Z,20.51
2018-06-27T06:30:43.624Z,20.66
2018-06-27T06:31:43.662Z,20.68
2018-06-27T06:33:44.577Z,20.67
2018-06-27T06:34:44.122Z,20.71
2018-06-27T06:36:42.110Z,20.78
2018-06-27T06:37:41.031Z,20.85
2018-06-27T06:39:46.594Z,20.88
2018-06-27T06:40:46.651Z,20.83
2018-06-27T06:42:45.556Z,20.86
2018-06-27T06:43:44.537Z,20.88
2018-06-27T06:45:40.527Z,20.97
2018-06-27T06:46:40.555Z,20.97
2018-06-27T06:48:37.511Z,21.01
2018-06-27T06:49:38.070Z,20.98
2018-06-27T06:51:35.952Z,20.96
2018-06-27T06:52:36.434Z,21.00
2018-06-27T06:54:37.187Z,21.04
2018-06-27T06:55:37.183Z,21.15
2018-06-27T06:57:35.694Z,21.03
2018-06-27T06:58:33.135Z,20.98
2018-06-27T07:00:31.045Z,20.98
2018-06-27T07:01:31.085Z,21.06
2018-06-27T07:03:29.033Z,20.97
2018-06-27T07:04:29.128Z,20.98
2018-06-27T07:06:25.028Z,21.06
2018-06-27T07:07:25.069Z,21.15
2018-06-27T07:09:22.268Z,20.98
2018-06-27T07:10:22.294Z,20.83
2018-06-27T07:12:20.586Z,20.93
2018-06-27T07:13:20.238Z,20.83
2018-06-27T07:15:18.186Z,20.93
2018-06-27T07:16:18.198Z,20.96
2018-06-27T07:18:17.669Z,20.98
2018-06-27T07:19:18.165Z,21.04
2018-06-27T07:21:14.778Z,21.16
2018-06-27T07:22:14.262Z,21.11
2018-06-27T07:24:11.242Z,21.25
2018-06-27T07:25:11.740Z,21.33
2018-06-27T07:27:10.240Z,21.37
2018-06-27T07:28:09.362Z,21.36
2018-06-27T07:30:06.812Z,21.38
2018-06-27T07:31:06.304Z,21.45
2018-06-27T07:33:06.781Z,21.37
2018-06-27T07:34:06.845Z,21.34
2018-06-27T07:36:08.812Z,21.51
2018-06-27T07:37:07.242Z,21.61
2018-06-27T07:39:05.217Z,21.56
2018-06-27T07:40:04.183Z,21.64
2018-06-27T07:42:03.675Z,21.68
2018-06-27T07:43:03.649Z,21.78
2018-06-27T07:45:03.615Z,21.76
2018-06-27T07:46:01.730Z,21.73
2018-06-27T07:48:00.120Z,21.71
2018-06-27T07:49:00.159Z,21.71
2018-06-27T07:50:58.009Z,21.89
2018-06-27T07:51:58.045Z,21.93
2018-06-27T07:53:57.990Z,21.93
2018-06-27T07:54:58.541Z,21.94
2018-06-27T07:56:59.466Z,22.07
2018-06-27T07:57:59.459Z,22.05
2018-06-27T07:59:57.418Z,22.11
2018-06-27T08:00:56.421Z,22.15
2018-06-27T08:02:54.836Z,22.09
2018-06-27T08:03:54.370Z,22.11
2018-06-27T08:05:56.807Z,22.24
2018-06-27T08:06:54.819Z,22.33
2018-06-27T08:08:55.847Z,22.51
2018-06-27T08:09:55.801Z,22.42
2018-06-27T08:11:55.789Z,22.38
2018-06-27T08:12:55.723Z,22.27
2018-06-27T08:14:54.200Z,22.12
2018-06-27T08:15:54.246Z,22.22
2018-06-27T08:17:50.206Z,22.46
2018-06-27T08:18:49.637Z,22.55
2018-06-27T08:20:48.116Z,22.69
2018-06-27T08:21:47.608Z,22.69
2018-06-27T08:23:49.043Z,22.69
2018-06-27T08:24:48.538Z,22.75
2018-06-27T08:26:46.933Z,22.70
2018-06-27T08:27:46.501Z,22.73
2018-06-27T08:29:43.998Z,22.82
2018-06-27T08:30:44.489Z,22.94
2018-06-27T08:32:41.982Z,23.00
2018-06-27T08:33:42.938Z,23.06
2018-06-27T08:35:37.911Z,23.10
2018-06-27T08:36:37.929Z,23.25
2018-06-27T08:38:33.928Z,23.34
2018-06-27T08:39:33.888Z,23.37
2018-06-27T08:41:30.861Z,23.32
2018-06-27T08:42:29.867Z,23.32
2018-06-27T08:44:26.449Z,23.28
2018-06-27T08:45:25.813Z,23.37
2018-06-27T08:47:21.786Z,23.50
2018-06-27T08:48:21.795Z,23.53
2018-06-27T08:50:17.749Z,23.63
2018-06-27T08:51:17.752Z,23.63
2018-06-27T08:53:13.740Z,23.67
2018-06-27T08:54:13.738Z,23.62
2018-06-27T08:56:10.847Z,23.59
2018-06-27T08:57:10.676Z,23.50
2018-06-27T08:59:06.622Z,23.55
2018-06-27T09:00:07.136Z,23.53
2018-06-27T09:02:03.627Z,23.56
2018-06-27T09:03:02.578Z,23.55
2018-06-27T09:04:58.530Z,23.44
2018-06-27T09:05:58.530Z,23.50
2018-06-27T09:07:54.993Z,23.45
2018-06-27T09:08:54.491Z,23.50
2018-06-27T09:10:51.452Z,23.53
2018-06-27T09:11:51.442Z,23.55
2018-06-27T09:13:47.418Z,23.57
2018-06-27T09:14:46.437Z,23.63
2018-06-27T09:16:42.398Z,23.81
2018-06-27T09:17:42.894Z,23.85
2018-06-27T09:19:38.853Z,24.00
2018-06-27T09:20:38.328Z,24.02
2018-06-27T09:22:35.309Z,24.02
2018-06-27T09:23:34.792Z,24.03
2018-06-27T09:25:30.238Z,24.09
2018-06-27T09:26:31.223Z,23.92
2018-06-27T09:28:26.215Z,23.71
2018-06-27T09:29:26.200Z,23.77
2018-06-27T09:31:22.135Z,23.71
2018-06-27T09:32:22.167Z,23.79
2018-06-27T09:34:19.120Z,23.93
2018-06-27T09:35:18.657Z,24.00
2018-06-27T09:37:14.590Z,24.03
2018-06-27T09:38:14.099Z,23.99
2018-06-27T09:40:11.604Z,24.09
2018-06-27T09:41:10.043Z,24.12
2018-06-27T09:43:06.050Z,24.29
2018-06-27T09:44:05.993Z,24.30
2018-06-27T09:46:02.471Z,24.32
2018-06-27T09:47:01.957Z,24.30
2018-06-27T09:48:58.915Z,24.36
2018-06-27T09:49:58.418Z,24.40
2018-06-27T09:51:53.861Z,24.46
2018-06-27T09:52:53.848Z,24.40
2018-06-27T09:54:49.794Z,24.45
2018-06-27T09:55:49.817Z,24.55
2018-06-27T09:57:46.272Z,24.36
2018-06-27T09:58:45.764Z,24.45
2018-06-27T10:00:42.231Z,24.59
2018-06-27T10:01:41.708Z,24.66
2018-06-27T10:03:37.704Z,24.54
2018-06-27T10:04:37.701Z,24.51
2018-06-27T10:06:33.662Z,24.63
2018-06-27T10:07:34.180Z,24.54
2018-06-27T10:09:29.645Z,24.58
2018-06-27T10:10:29.614Z,24.55
2018-06-27T10:12:25.590Z,24.64
2018-06-27T10:13:26.094Z,24.69
2018-06-27T10:15:22.004Z,24.89
2018-06-27T10:16:21.492Z,24.92
2018-06-27T10:18:18.455Z,25.04
2018-06-27T10:19:17.446Z,24.92
2018-06-27T10:21:13.408Z,24.89
2018-06-27T10:22:15.012Z,24.92
2018-06-27T10:24:09.889Z,24.86
2018-06-27T10:25:09.373Z,24.78
2018-06-27T10:27:06.852Z,25.08
2018-06-27T10:28:05.345Z,25.04
2018-06-27T10:30:01.314Z,25.05
2018-06-27T10:31:01.334Z,25.11
2018-06-27T10:32:57.305Z,25.01
2018-06-27T10:35:14.279Z,25.01
2018-06-27T10:36:13.762Z,25.07
2018-06-27T10:38:09.255Z,25.07
2018-06-27T10:39:09.223Z,25.12
2018-06-27T10:41:07.161Z,25.07
2018-06-27T10:42:07.196Z,25.00
2018-06-27T10:44:04.190Z,25.05
2018-06-27T10:45:03.169Z,25.08
2018-06-27T10:46:59.118Z,25.15
2018-06-27T10:47:59.147Z,25.19
2018-06-27T10:49:55.109Z,25.27
2018-06-27T10:50:55.586Z,25.27
2018-06-27T10:52:51.106Z,25.22
2018-06-27T10:53:51.048Z,25.22
2018-06-27T10:55:47.033Z,25.27
2018-06-27T10:56:47.028Z,25.42
2018-06-27T10:58:43.498Z,25.54
2018-06-27T10:59:42.990Z,25.57
2018-06-27T11:01:41.075Z,25.64
2018-06-27T11:02:41.080Z,25.71
2018-06-27T11:04:37.088Z,25.79
2018-06-27T11:05:38.059Z,25.64
2018-06-27T11:07:35.574Z,25.62
2018-06-27T11:08:35.076Z,25.51
2018-06-27T11:10:32.985Z,25.59
2018-06-27T11:11:31.993Z,25.62
2018-06-27T11:13:26.992Z,25.81
2018-06-27T11:14:26.966Z,25.82
2018-06-27T11:16:24.923Z,25.93
2018-06-27T11:17:24.966Z,25.96
2018-06-27T11:19:20.909Z,26.07
2018-06-27T11:20:20.931Z,25.97
2018-06-27T11:22:16.833Z,26.03
2018-06-27T11:23:16.839Z,25.85
2018-06-27T11:25:13.735Z,25.81
2018-06-27T11:26:12.815Z,25.81
2018-06-27T11:28:09.277Z,25.97
2018-06-27T11:29:08.778Z,26.16
2018-06-27T11:31:04.737Z,26.34
2018-06-27T11:32:04.735Z,26.34
2018-06-27T11:34:00.681Z,26.23
2018-06-27T11:35:00.691Z,26.22
2018-06-27T11:36:57.659Z,26.16
2018-06-27T11:37:57.669Z,26.06
2018-06-27T11:39:52.680Z,26.19
2018-06-27T11:40:52.668Z,26.15
2018-06-27T11:42:48.650Z,26.16
2018-06-27T11:43:48.654Z,26.22
2018-06-27T11:45:49.610Z,26.11
2018-06-27T11:46:44.696Z,26.09
2018-06-27T11:48:40.610Z,26.06
2018-06-27T11:49:40.824Z,26.15
2018-06-27T11:51:37.558Z,26.31
2018-06-27T11:52:36.530Z,26.32
2018-06-27T11:54:32.509Z,26.56
2018-06-27T11:55:32.531Z,26.63
2018-06-27T11:57:29.294Z,26.81
2018-06-27T11:58:29.298Z,26.84
2018-06-27T12:00:25.794Z,26.82
2018-06-27T12:01:25.258Z,26.91
2018-06-27T12:03:21.733Z,26.76
2018-06-27T12:04:21.239Z,26.84
2018-06-27T12:06:17.271Z,26.76
2018-06-27T12:07:17.212Z,26.68
2018-06-27T12:09:14.190Z,26.82
2018-06-27T12:10:13.182Z,26.91
2018-06-27T12:12:11.080Z,26.93
2018-06-27T12:13:10.092Z,26.82
2018-06-27T12:15:08.120Z,26.81
2018-06-27T12:16:07.306Z,26.82
2018-06-27T12:18:03.299Z,26.79
2018-06-27T12:19:03.290Z,26.78
2018-06-27T12:20:59.758Z,26.82
2018-06-27T12:21:59.277Z,26.72
2018-06-27T12:23:55.763Z,26.78
2018-06-27T12:24:55.243Z,26.75
2018-06-27T12:26:51.225Z,26.86
2018-06-27T12:27:51.244Z,26.91
2018-06-27T12:29:47.164Z,27.06
2018-06-27T12:30:47.169Z,27.08
2018-06-27T12:32:43.159Z,27.18
2018-06-27T12:33:43.148Z,27.23
2018-06-27T12:35:40.036Z,27.55
2018-06-27T12:36:39.112Z,27.65
2018-06-27T12:38:35.101Z,27.55
2018-06-27T12:39:35.098Z,27.52
2018-06-27T12:41:31.196Z,27.33
2018-06-27T12:42:31.063Z,27.27
2018-06-27T12:44:29.655Z,27.30
2018-06-27T12:45:29.028Z,27.11
2018-06-27T12:47:24.976Z,27.16
2018-06-27T12:48:24.989Z,27.30
2018-06-27T12:50:21.042Z,27.41
2018-06-27T12:51:20.966Z,27.38
2018-06-27T12:53:17.921Z,27.48
2018-06-27T12:54:16.930Z,27.45
2018-06-27T12:56:12.885Z,27.62
2018-06-27T12:57:13.921Z,27.69
2018-06-27T12:59:08.909Z,27.66
2018-06-27T13:00:08.893Z,27.71
2018-06-27T13:02:05.361Z,27.65
2018-06-27T13:03:04.842Z,27.71
2018-06-27T13:05:01.805Z,27.98
2018-06-27T13:06:00.886Z,27.87
2018-06-27T13:07:56.838Z,27.98
2018-06-27T13:08:56.876Z,27.89
2018-06-27T13:10:53.791Z,27.99
2018-06-27T13:11:52.815Z,27.90
2018-06-27T13:13:48.803Z,27.99
2018-06-27T13:14:48.781Z,27.76
2018-06-27T13:16:46.239Z,27.59
2018-06-27T13:17:45.231Z,27.31
2018-06-27T13:19:42.687Z,27.43
2018-06-27T13:20:43.708Z,27.31
2018-06-27T13:22:40.678Z,27.43
2018-06-27T13:23:39.662Z,27.45
2018-06-27T13:25:35.750Z,27.52
2018-06-27T13:26:35.663Z,27.62
2018-06-27T13:28:32.692Z,27.43
2018-06-27T13:29:32.139Z,27.42
2018-06-27T13:31:27.606Z,27.36
2018-06-27T13:33:45.066Z,27.48
2018-06-27T13:36:04.029Z,27.76
2018-06-27T13:37:06.039Z,27.84
2018-06-27T13:39:05.501Z,27.94
2018-06-27T13:40:06.011Z,27.75
2018-06-27T13:42:00.951Z,27.61
2018-06-27T13:43:01.969Z,27.61
2018-06-27T13:44:59.448Z,27.59
2018-06-27T13:45:59.735Z,27.55
2018-06-27T13:47:55.590Z,27.49
2018-06-27T13:48:56.686Z,27.59
2018-06-27T13:50:51.553Z,27.55
2018-06-27T13:51:52.009Z,27.61
2018-06-27T13:53:49.001Z,27.46
2018-06-27T13:54:47.920Z,27.49
2018-06-27T13:56:43.004Z,27.49
2018-06-27T13:57:42.998Z,27.45
2018-06-27T13:59:40.992Z,27.28
2018-06-27T14:00:41.548Z,27.31
2018-06-27T14:02:37.965Z,27.28
2018-06-27T14:03:36.972Z,27.24
2018-06-27T14:05:35.948Z,27.26
2018-06-27T14:06:36.923Z,27.12
2018-06-27T14:08:31.100Z,27.37
2018-06-27T14:09:31.091Z,27.48
2018-06-27T14:11:31.010Z,27.33
2018-06-27T14:12:33.572Z,27.34
2018-06-27T14:14:27.762Z,27.08
2018-06-27T14:15:26.804Z,27.09
2018-06-27T14:17:22.885Z,27.15
2018-06-27T14:18:23.749Z,27.15
2018-06-27T14:20:20.746Z,27.33
2018-06-27T14:21:18.727Z,27.43
2018-06-27T14:23:14.776Z,27.33
2018-06-27T14:24:15.829Z,27.23
2018-06-27T14:26:12.890Z,27.00
2018-06-27T14:27:12.918Z,26.86
2018-06-27T14:29:07.609Z,26.76
2018-06-27T14:30:07.577Z,26.79
2018-06-27T14:32:03.559Z,26.76
2018-06-27T14:33:03.560Z,26.69
2018-06-27T14:35:01.497Z,27.00
2018-06-27T14:36:02.488Z,27.09
2018-06-27T14:38:08.462Z,27.18
2018-06-27T14:39:08.959Z,27.08
2018-06-27T14:41:01.959Z,27.00
2018-06-27T14:43:18.386Z,27.21
2018-06-27T14:44:18.125Z,27.28
2018-06-27T14:46:14.184Z,27.27
2018-06-27T14:47:14.117Z,27.31
2018-06-27T14:49:10.056Z,27.46
2018-06-27T14:50:09.610Z,27.41
2018-06-27T14:52:07.601Z,27.26
2018-06-27T14:53:06.674Z,27.30
2018-06-27T14:55:03.208Z,27.12
2018-06-27T14:56:03.001Z,27.04
2018-06-27T14:57:59.102Z,27.09
2018-06-27T14:58:57.149Z,27.08
2018-06-27T15:00:53.135Z,27.06
2018-06-27T15:01:53.119Z,27.18
2018-06-27T15:03:49.092Z,27.01
2018-06-27T15:04:49.644Z,27.05
2018-06-27T15:06:46.587Z,27.04
2018-06-27T15:07:45.527Z,27.01
2018-06-27T15:09:42.455Z,27.04
2018-06-27T15:10:41.096Z,26.97
2018-06-27T15:12:35.640Z,26.81
2018-06-27T15:13:35.667Z,26.93
2018-06-27T15:15:31.595Z,26.79
2018-06-27T15:16:31.616Z,26.89
2018-06-27T15:18:27.585Z,26.91
2018-06-27T15:19:27.563Z,26.84
2018-06-27T15:21:24.084Z,26.84
2018-06-27T15:22:23.550Z,26.74
2018-06-27T15:24:20.516Z,26.67
2018-06-27T15:25:19.498Z,26.64
2018-06-27T15:27:15.970Z,26.64
2018-06-27T15:28:15.487Z,26.59
2018-06-27T15:30:11.451Z,26.54
2018-06-27T15:31:11.462Z,26.63
2018-06-27T15:33:07.915Z,26.75
2018-06-27T15:34:07.407Z,26.68
2018-06-27T15:36:03.375Z,26.72
2018-06-27T15:37:03.379Z,26.76
2018-06-27T15:39:00.839Z,26.87
2018-06-27T15:40:00.372Z,26.76
2018-06-27T15:41:56.815Z,26.81
2018-06-27T15:42:56.240Z,26.90
2018-06-27T15:44:51.784Z,26.84
2018-06-27T15:45:52.291Z,26.72
2018-06-27T15:47:47.732Z,26.87
2018-06-27T15:48:48.731Z,26.72
2018-06-27T15:50:43.212Z,26.81
2018-06-27T15:51:44.193Z,26.76
2018-06-27T15:53:39.171Z,26.82
2018-06-27T15:54:39.185Z,26.68
2018-06-27T15:56:37.131Z,26.72
2018-06-27T15:57:37.688Z,26.82
2018-06-27T15:59:33.151Z,27.01
2018-06-27T16:00:33.110Z,27.00
2018-06-27T16:02:31.594Z,26.97
2018-06-27T16:03:29.047Z,26.96
2018-06-27T16:05:24.998Z,27.04
2018-06-27T16:06:25.512Z,27.09
2018-06-27T16:08:24.990Z,27.08
2018-06-27T16:09:22.991Z,27.09
2018-06-27T16:11:19.843Z,27.04
2018-06-27T16:12:20.494Z,27.08
2018-06-27T16:14:16.785Z,26.94
2018-06-27T16:15:15.792Z,26.93
2018-06-27T16:17:11.817Z,26.82
2018-06-27T16:19:27.733Z,26.86
2018-06-27T16:20:28.726Z,26.93
2018-06-27T16:22:24.211Z,26.81
2018-06-27T16:23:23.688Z,26.86
2018-06-27T16:25:19.650Z,26.76
2018-06-27T16:26:19.675Z,26.68
2018-06-27T16:28:15.635Z,26.78
2018-06-27T16:29:15.629Z,26.75
2018-06-27T16:31:11.574Z,26.75
2018-06-27T16:32:12.090Z,26.64
2018-06-27T16:34:07.580Z,26.89
2018-06-27T16:35:07.550Z,26.79
2018-06-27T16:37:05.504Z,27.06
2018-06-27T16:38:05.520Z,27.08
2018-06-27T16:40:01.505Z,27.11
2018-06-27T16:41:01.497Z,27.26
2018-06-27T16:42:59.014Z,27.42
2018-06-27T16:43:57.487Z,27.53
2018-06-27T16:45:53.493Z,27.80
2018-06-27T16:46:53.487Z,27.89
2018-06-27T16:48:49.452Z,28.12
2018-06-27T16:49:50.441Z,28.45
2018-06-27T16:51:47.542Z,28.78
2018-06-27T16:52:47.535Z,28.98
2018-06-27T16:54:43.555Z,28.85
2018-06-27T16:55:44.013Z,28.86
2018-06-27T16:57:43.490Z,29.05
2018-06-27T16:58:41.653Z,29.15
2018-06-27T17:00:38.133Z,29.35
2018-06-27T17:01:38.620Z,29.21
2018-06-27T17:03:36.131Z,28.24
2018-06-27T17:04:36.147Z,27.90
2018-06-27T17:06:31.564Z,27.52
2018-06-27T17:07:32.559Z,27.38
2018-06-27T17:09:29.501Z,27.19
2018-06-27T17:10:30.024Z,27.16
2018-06-27T17:12:26.544Z,27.18
2018-06-27T17:13:25.561Z,27.09
2018-06-27T17:15:21.479Z,27.05
2018-06-27T17:16:21.512Z,27.00
2018-06-27T17:18:17.495Z,26.89
2018-06-27T17:19:17.501Z,26.82
2018-06-27T17:21:16.993Z,26.79
2018-06-27T17:22:15.479Z,26.81
2018-06-27T17:24:12.439Z,26.82
2018-06-27T17:25:12.424Z,26.75
2018-06-27T17:27:07.959Z,26.72
2018-06-27T17:28:07.413Z,26.74
2018-06-27T17:30:03.395Z,26.61
2018-06-27T17:31:03.359Z,26.61
2018-06-27T17:32:59.356Z,26.64
2018-06-27T17:34:00.349Z,26.69
2018-06-27T17:35:55.811Z,26.60
2018-06-27T17:36:56.253Z,26.67
2018-06-27T17:38:53.302Z,26.57
2018-06-27T17:39:53.290Z,26.61
2018-06-27T17:41:51.411Z,26.49
2018-06-27T17:42:51.421Z,26.59
2018-06-27T17:44:51.380Z,26.53
2018-06-27T17:45:49.586Z,26.50
2018-06-27T17:47:45.562Z,26.49
2018-06-27T17:48:46.563Z,26.52
2018-06-27T17:50:41.521Z,26.42
2018-06-27T17:51:41.533Z,26.34
2018-06-27T17:53:37.513Z,26.42
2018-06-27T17:54:37.500Z,26.38
2018-06-27T17:56:33.978Z,26.37
2018-06-27T17:57:33.988Z,26.31
2018-06-27T17:59:29.936Z,26.30
2018-06-27T18:00:30.919Z,26.27
2018-06-27T18:02:25.396Z,26.32
2018-06-27T18:03:25.401Z,26.26
2018-06-27T18:05:22.336Z,26.19
2018-06-27T18:06:21.357Z,26.17
2018-06-27T18:08:20.346Z,26.26
2018-06-27T18:09:19.491Z,26.32
2018-06-27T18:11:18.455Z,26.23
2018-06-27T18:12:17.444Z,26.30
2018-06-27T18:14:13.927Z,26.11
2018-06-27T18:15:13.425Z,26.22
2018-06-27T18:17:09.479Z,26.06
2018-06-27T18:18:10.430Z,26.06
2018-06-27T18:20:05.428Z,25.99
2018-06-27T18:21:05.603Z,25.91
2018-06-27T18:23:01.980Z,25.96
2018-06-27T18:24:01.409Z,25.89
2018-06-27T18:25:59.431Z,25.97
2018-06-27T18:26:59.370Z,25.94
2018-06-27T18:28:56.359Z,25.89
2018-06-27T18:29:56.362Z,25.97
2018-06-27T18:31:52.527Z,25.81
2018-06-27T18:32:53.332Z,25.79
2018-06-27T18:34:48.400Z,25.69
2018-06-27T18:35:48.404Z,25.64
2018-06-27T18:37:46.400Z,25.63
2018-06-27T18:38:46.363Z,25.63
2018-06-27T18:40:42.340Z,25.49
2018-06-27T18:41:42.313Z,25.48
2018-06-27T18:43:37.335Z,25.37
2018-06-27T18:44:37.781Z,25.39
2018-06-27T18:46:32.794Z,25.37
2018-06-27T18:47:32.800Z,25.38
2018-06-27T18:49:29.281Z,25.27
2018-06-27T18:51:44.778Z,25.69
2018-06-27T18:52:44.743Z,25.93
2018-06-27T18:54:40.713Z,26.35
2018-06-27T18:55:40.721Z,26.03
2018-06-27T18:57:38.942Z,25.67
2018-06-27T18:58:39.015Z,25.59
2018-06-27T19:00:37.008Z,25.47
2018-06-27T19:01:36.945Z,25.45
2018-06-27T19:03:32.913Z,25.76
2018-06-27T19:04:32.917Z,25.66